Etusivu
METAR-TAF:

METAR-TAF

Lentoasemat :

Sotilaslentoasema

Morón de la Frontera, Espanja

Leveyspiiri: 37-09N, Pituuspiiri: 005-37W, korkeus merenpinnasta: 87 m

Tämänhetkinen sää

Tämä raportti tehtiin 1 tunti ja 3 minuuttia sitten, kello 04.00 UTC
Tuuli 3 kn etelästä
Lämpötila 16°C
Kosteus 63%
Ilmanpaine 1010 hPa
Näkyvyys 10 km tai enemmän
ei pilviä alle 1500 m:ssä eikä cumulonimbus-pilviä

METAR: LEMO 310400Z 18003KT CAVOK 16/09 Q1010 NOSIG

Aika: 07:03 (05:03 UTC)

Sääennuste

Tämä raportti tehtiin 3 tuntia ja 3 minuuttia sitten, kello 02.00 UTC
Ennuste voimassa 31. päivästä klo 03 UTC - 31. päivään klo 12 UTC
Tuuli 2 kn eri suunnista
Näkyvyys 10 km tai enemmän
ei pilviä alle 1500 m:ssä eikä cumulonimbus-pilviä
Todennäköisyys 30% :
Ajoittain
31. päivästä klo 09 UTC - 31. päivään klo 12 UTC
Muutamia pilviä 6000 ft:n korkeudessa, Cumulonimbus.

TAF: LEMO 310200Z 3103/3112 VRB02KT CAVOK PROB30 TEMPO 3109/3112 FEW060CB

Säähavainnot ja -ennusteet yli 4000 lentoasemalta (METAR- ja TAF-raportit).

Käytössä olevat sääasemat on merkitty karttaan keltaisilla ja punaisilla pisteillä.

Aseta hiiri pisteen päälle nähdäksesi sääaseman nimen.

Klikkaa sitten nähdäksesi säähavainnot ja -ennusteet.

Kartan vaihtaminen: klikkaa mustalla rastilla varustettuja vihreitä pisteitä, niin voit zoomata sisään; viivalla varustettua vihreää pistettä, niin voit zoomata ulos tai vihreitä nuolia, niin pääset viereisille kartoille.


METAR-TAF: